NetherlandsFixed distance
Centurion Schiedam
7 Jun2014
Distance
50mi
Finishers
3730 men7 women
Winning time
9:45:31h
Median pace
6.83km/h
Pace distribution
37 finishers · 5.16–8.25 km/h · mean 6.72
Every finisher ran the same 50 mi course, so these paces are directly comparable.
Histogram of finisher pace. 37 finishers ranged from 5.16 to 8.25 kilometres per hour, with a mean of 6.72 and a median of 6.83. The busiest band is 6.5 to 7.0 kilometres per hour, with 11 finishers.
Results
Ranks 1–37 of 37
| Rank | Runner | Time | Pace | Cat. | Placing |
|---|---|---|---|---|---|
| 1 | Olat | 9:45:31h | 8.25 | M50 | 1st M · 1st M50 |
| 2 | 10:15:44h | 7.84 | — | 2nd M | |
| 3 | 10:39:36h | 7.55 | M35 | 3rd M · 1st M35 | |
| 4 | RWV | 10:42:19h | 7.52 | M23 | 4th M · 1st M23 |
| 5 | Knblo | 10:48:54h | 7.44 | — | 5th M |
| 6 | LAT | 10:51:10h | 7.41 | M75 | 6th M · 1st M75 |
| 7 | 10:52:11h | 7.40 | M40 | 7th M · 1st M40 | |
| 8 | RWV | 11:02:29h | 7.29 | M55 | 8th M · 1st M55 |
| 9 | 11:04:28h | 7.27 | M45 | 9th M · 1st M45 | |
| 10 | HVB | 11:11:27h | 7.19 | — | 10th M |
| 11 | RWV | 11:12:22h | 7.18 | W40 | 1st F · 1st W40 |
| 12 | 11:15:30h | 7.15 | W40 | 2nd F · 2nd W40 | |
| 13 | Olat | 11:25:50h | 7.04 | M70 | 11th M · 1st M70 |
| 14 | SV de LAT | 11:26:30h | 7.03 | W60 | 3rd F · 1st W60 |
| 15 | 11:31:22h | 6.98 | M50 | 12th M · 2nd M50 | |
| 16 | Noad | 11:45:02h | 6.85 | M55 | 13th M · 2nd M55 |
| 17 | Noad | 11:45:02h | 6.85 | — | 13th M |
| 18 | LAT | 11:46:34h | 6.83 | W55 | 4th F · 1st W55 |
| 19 | LAT | 11:46:34h | 6.83 | M55 | 15th M · 3rd M55 |
| 20 | RWV | 11:47:54h | 6.82 | M65 | 16th M · 1st M65 |
| 21 | RWV | 11:48:53h | 6.81 | M75 | 17th M · 2nd M75 |
| 22 | 11:49:37h | 6.80 | — | 18th M | |
| 23 | 11:52:09h | 6.78 | — | 19th M | |
| 24 | Birchfield | 11:55:32h | 6.75 | M40 | 20th M · 2nd M40 |
| 25 | 11:56:41h | 6.74 | — | 21st M | |
| 26 | Olat | 12:26:28h | 6.47 | M60 | 22nd M · 1st M60 |
| 27 | 12:48:12h | 6.29 | M35 | 23rd M · 2nd M35 | |
| 28 | WS'78 | 13:17:32h | 6.05 | M40 | 24th M · 3rd M40 |
| 29 | Dortse Vier | 13:31:12h | 5.95 | M40 | 25th M · 4th M40 |
| 30 | Olat | 13:39:28h | 5.89 | M23 | 26th M · 2nd M23 |
| 31 | Olat | 13:43:42h | 5.86 | W60 | 5th F · 2nd W60 |
| 32 | 13:55:22h | 5.78 | — | 27th M | |
| 33 | Gouden KR. | 13:55:56h | 5.78 | M45 | 28th M · 2nd M45 |
| 34 | Knblo | 13:55:56h | 5.78 | — | 28th M |
| 35 | WS'78 | 14:41:59h | 5.47 | — | 6th F |
| 36 | Birchfield | 14:49:24h | 5.43 | W50 | 7th F · 1st W50 |
| 37 | RWV | 15:35:03h | 5.16 | — | 30th M |
- 1Olat1st M · 1st M50Time9:45:31hPace8.25Cat.M50
- 22nd MTime10:15:44hPace7.84
- 33rd M · 1st M35Time10:39:36hPace7.55Cat.M35
- 4RWV4th M · 1st M23Time10:42:19hPace7.52Cat.M23
- 5Knblo5th MTime10:48:54hPace7.44
- 6LAT6th M · 1st M75Time10:51:10hPace7.41Cat.M75
- 77th M · 1st M40Time10:52:11hPace7.40Cat.M40
- 8RWV8th M · 1st M55Time11:02:29hPace7.29Cat.M55
- 99th M · 1st M45Time11:04:28hPace7.27Cat.M45
- 10HVB10th MTime11:11:27hPace7.19
- 11RWV1st F · 1st W40Time11:12:22hPace7.18Cat.W40
- 122nd F · 2nd W40Time11:15:30hPace7.15Cat.W40
- 13Olat11th M · 1st M70Time11:25:50hPace7.04Cat.M70
- 14SV de LAT3rd F · 1st W60Time11:26:30hPace7.03Cat.W60
- 1512th M · 2nd M50Time11:31:22hPace6.98Cat.M50
- 16Noad13th M · 2nd M55Time11:45:02hPace6.85Cat.M55
- 17Noad13th MTime11:45:02hPace6.85
- 18LAT4th F · 1st W55Time11:46:34hPace6.83Cat.W55
- 19LAT15th M · 3rd M55Time11:46:34hPace6.83Cat.M55
- 20RWV16th M · 1st M65Time11:47:54hPace6.82Cat.M65
- 21RWV17th M · 2nd M75Time11:48:53hPace6.81Cat.M75
- 2218th MTime11:49:37hPace6.80
- 2319th MTime11:52:09hPace6.78
- 24Birchfield20th M · 2nd M40Time11:55:32hPace6.75Cat.M40
- 2521st MTime11:56:41hPace6.74
- 26Olat22nd M · 1st M60Time12:26:28hPace6.47Cat.M60
- 2723rd M · 2nd M35Time12:48:12hPace6.29Cat.M35
- 28WS'7824th M · 3rd M40Time13:17:32hPace6.05Cat.M40
- 29Dortse Vier25th M · 4th M40Time13:31:12hPace5.95Cat.M40
- 30Olat26th M · 2nd M23Time13:39:28hPace5.89Cat.M23
- 31Olat5th F · 2nd W60Time13:43:42hPace5.86Cat.W60
- 3227th MTime13:55:22hPace5.78
- 33Gouden KR.28th M · 2nd M45Time13:55:56hPace5.78Cat.M45
- 34Knblo28th MTime13:55:56hPace5.78
- 35WS'786th FTime14:41:59hPace5.47
- 36Birchfield7th F · 1st W50Time14:49:24hPace5.43Cat.W50
- 37RWV30th MTime15:35:03hPace5.16